Time,TemperatureF,DewpointF,PressureIn,WindDirection,WindDirectionDegrees,WindSpeedMPH,WindSpeedGustMPH,Humidity,HourlyPrecipIn,Conditions,Clouds,dailyrainin,SoftwareType,DateUTC
2013-09-25 00:00:00,55.8,55.0,29.93,NNW,328,0.0,0.0,97,0.00,,,0.00,Wunderground v.1.15,2013-09-25 04:00:00,
2013-09-25 00:05:00,55.7,54.9,29.93,NNW,328,0.0,0.0,97,0.00,,,0.00,Wunderground v.1.15,2013-09-25 04:05:00,
2013-09-25 00:10:00,55.7,54.9,29.93,NNW,328,0.0,0.0,97,0.00,,,0.00,Wunderground v.1.15,2013-09-25 04:10:00,
2013-09-25 00:15:00,55.7,55.1,29.93,NNW,328,0.0,0.0,98,0.00,,,0.00,Wunderground v.1.15,2013-09-25 04:15:00,
2013-09-25 00:50:00,55.5,54.9,29.93,NNW,328,0.0,0.0,98,0.00,,,0.00,Wunderground v.1.15,2013-09-25 04:50:00,
2013-09-25 00:55:00,55.4,54.8,29.92,NNW,328,0.0,0.0,98,0.00,,,0.00,Wunderground v.1.15,2013-09-25 04:55:00,
2013-09-25 01:00:00,55.3,54.7,29.92,NNW,328,0.0,0.0,98,0.00,,,0.00,Wunderground v.1.15,2013-09-25 05:00:00,
2013-09-25 01:05:00,55.2,54.6,29.92,NNW,328,0.0,0.0,98,0.00,,,0.00,Wunderground v.1.15,2013-09-25 05:05:00,
2013-09-25 01:15:00,55.0,54.4,29.92,NNW,328,0.0,0.0,98,0.00,,,0.00,Wunderground v.1.15,2013-09-25 05:15:00,
2013-09-25 01:20:00,54.9,54.3,29.92,NNW,328,0.0,0.0,98,0.00,,,0.00,Wunderground v.1.15,2013-09-25 05:20:00,
2013-09-25 01:25:00,54.9,54.3,29.92,NNW,328,0.0,0.0,98,0.00,,,0.00,Wunderground v.1.15,2013-09-25 05:25:00,
2013-09-25 01:35:00,54.8,54.2,29.92,NNW,328,0.0,0.0,98,0.00,,,0.00,Wunderground v.1.15,2013-09-25 05:35:00,
2013-09-25 01:40:00,54.7,54.1,29.92,NNW,328,0.0,0.0,98,0.00,,,0.00,Wunderground v.1.15,2013-09-25 05:40:00,
2013-09-25 01:45:00,54.6,54.0,29.92,NNW,328,0.0,0.0,98,0.00,,,0.00,Wunderground v.1.15,2013-09-25 05:45:00,
2013-09-25 01:55:00,54.4,53.8,29.92,NNW,328,0.0,0.0,98,0.00,,,0.00,Wunderground v.1.15,2013-09-25 05:55:00,
2013-09-25 02:00:00,54.3,53.7,29.92,NNW,328,0.0,0.0,98,0.00,,,0.00,Wunderground v.1.15,2013-09-25 06:00:00,
2013-09-25 02:10:00,54.1,53.5,29.92,NNW,328,0.0,0.0,98,0.00,,,0.00,Wunderground v.1.15,2013-09-25 06:10:00,
2013-09-25 02:15:00,54.1,53.5,29.92,NNW,328,0.0,0.0,98,0.00,,,0.00,Wunderground v.1.15,2013-09-25 06:15:00,
2013-09-25 02:20:00,54.0,53.4,29.92,NNW,328,0.0,0.0,98,0.00,,,0.00,Wunderground v.1.15,2013-09-25 06:20:00,
2013-09-25 02:25:00,53.9,53.3,29.92,NNW,328,0.0,0.0,98,0.00,,,0.00,Wunderground v.1.15,2013-09-25 06:25:00,
2013-09-25 02:35:00,53.6,53.0,29.92,NNW,328,0.0,0.0,98,0.00,,,0.00,Wunderground v.1.15,2013-09-25 06:35:00,
2013-09-25 02:40:00,53.5,52.9,29.91,NNW,328,0.0,0.0,98,0.00,,,0.00,Wunderground v.1.15,2013-09-25 06:40:00,
2013-09-25 02:45:00,53.4,52.8,29.91,NNW,328,0.0,0.0,98,0.00,,,0.00,Wunderground v.1.15,2013-09-25 06:45:00,
2013-09-25 02:55:00,53.3,52.8,29.91,NNW,328,0.0,0.0,98,0.00,,,0.00,Wunderground v.1.15,2013-09-25 06:55:00,
2013-09-25 03:00:00,53.2,52.7,29.91,NNW,328,0.0,0.0,98,0.00,,,0.00,Wunderground v.1.15,2013-09-25 07:00:00,
2013-09-25 03:05:00,53.2,52.7,29.90,NNW,328,0.0,0.0,98,0.00,,,0.00,Wunderground v.1.15,2013-09-25 07:05:00,
2013-09-25 03:15:00,53.0,52.5,29.91,NNW,328,0.0,0.0,98,0.00,,,0.00,Wunderground v.1.15,2013-09-25 07:15:00,
2013-09-25 03:20:00,52.9,52.4,29.91,NNW,328,0.0,0.0,98,0.00,,,0.00,Wunderground v.1.15,2013-09-25 07:20:00,
2013-09-25 03:25:00,52.8,52.3,29.91,NNW,328,0.0,0.0,98,0.00,,,0.00,Wunderground v.1.15,2013-09-25 07:25:00,
2013-09-25 03:35:00,52.6,52.1,29.91,NNW,328,0.0,0.0,98,0.00,,,0.00,Wunderground v.1.15,2013-09-25 07:35:00,
2013-09-25 03:40:00,52.6,52.1,29.91,NNW,328,0.0,0.0,98,0.00,,,0.00,Wunderground v.1.15,2013-09-25 07:40:00,
2013-09-25 03:50:00,52.3,51.8,29.91,NNW,328,0.0,0.0,98,0.00,,,0.00,Wunderground v.1.15,2013-09-25 07:50:00,
2013-09-25 03:55:00,52.3,51.8,29.91,NNW,328,0.0,0.0,98,0.00,,,0.00,Wunderground v.1.15,2013-09-25 07:55:00,
2013-09-25 04:00:00,52.3,51.8,29.91,NNW,328,0.0,0.0,98,0.00,,,0.00,Wunderground v.1.15,2013-09-25 08:00:00,
2013-09-25 04:05:00,52.2,51.7,29.91,NNW,328,0.0,0.0,98,0.00,,,0.00,Wunderground v.1.15,2013-09-25 08:05:00,
2013-09-25 04:15:00,52.1,51.6,29.91,NNW,328,0.0,0.0,98,0.00,,,0.00,Wunderground v.1.15,2013-09-25 08:15:00,
2013-09-25 04:20:00,52.1,51.6,29.91,NNW,328,0.0,0.0,98,0.00,,,0.00,Wunderground v.1.15,2013-09-25 08:20:00,
2013-09-25 04:30:00,51.8,51.3,29.90,NNW,328,0.0,0.0,98,0.00,,,0.00,Wunderground v.1.15,2013-09-25 08:30:00,
2013-09-25 04:35:00,51.7,51.2,29.90,NNW,328,0.0,0.0,98,0.00,,,0.00,Wunderground v.1.15,2013-09-25 08:35:00,
2013-09-25 04:40:00,51.6,51.1,29.90,NNW,328,0.0,0.0,98,0.00,,,0.00,Wunderground v.1.15,2013-09-25 08:40:00,
2013-09-25 04:50:00,51.5,51.0,29.90,NNW,328,0.0,0.0,98,0.00,,,0.00,Wunderground v.1.15,2013-09-25 08:50:00,
2013-09-25 04:55:00,51.5,51.0,29.91,NNW,328,0.0,0.0,98,0.00,,,0.00,Wunderground v.1.15,2013-09-25 08:55:00,
2013-09-25 05:00:00,51.4,50.9,29.90,NNW,328,0.0,0.0,98,0.00,,,0.00,Wunderground v.1.15,2013-09-25 09:00:00,
2013-09-25 05:10:00,51.2,50.7,29.90,NNW,328,0.0,0.0,98,0.00,,,0.00,Wunderground v.1.15,2013-09-25 09:10:00,
2013-09-25 05:15:00,51.2,50.7,29.90,NNW,328,0.0,0.0,98,0.00,,,0.00,Wunderground v.1.15,2013-09-25 09:15:00,
2013-09-25 05:20:00,51.2,50.7,29.90,NNW,328,0.0,0.0,98,0.00,,,0.00,Wunderground v.1.15,2013-09-25 09:20:00,
2013-09-25 05:30:00,51.1,50.6,29.90,NNW,328,0.0,0.0,98,0.00,,,0.00,Wunderground v.1.15,2013-09-25 09:30:00,
2013-09-25 05:35:00,51.0,50.5,29.90,NNW,328,0.0,0.0,98,0.00,,,0.00,Wunderground v.1.15,2013-09-25 09:35:00,
2013-09-25 05:40:00,51.0,50.5,29.90,NNW,328,0.0,0.0,98,0.00,,,0.00,Wunderground v.1.15,2013-09-25 09:40:00,
2013-09-25 05:50:00,50.9,50.6,29.90,NNW,328,0.0,0.0,99,0.00,,,0.00,Wunderground v.1.15,2013-09-25 09:50:00,
2013-09-25 05:55:00,50.8,50.5,29.90,NNW,328,0.0,0.0,99,0.00,,,0.00,Wunderground v.1.15,2013-09-25 09:55:00,
2013-09-25 06:00:00,50.8,50.5,29.90,NNW,328,0.0,0.0,99,0.00,,,0.00,Wunderground v.1.15,2013-09-25 10:00:00,
2013-09-25 06:10:00,50.6,50.1,29.90,NNW,328,0.0,0.0,98,0.00,,,0.00,Wunderground v.1.15,2013-09-25 10:10:00,
2013-09-25 06:15:00,50.5,50.0,29.90,NNW,328,0.0,0.0,98,0.00,,,0.00,Wunderground v.1.15,2013-09-25 10:15:00,
2013-09-25 06:20:00,50.4,49.9,29.90,NNW,328,0.0,0.0,98,0.00,,,0.00,Wunderground v.1.15,2013-09-25 10:20:00,
2013-09-25 06:30:00,50.3,49.8,29.90,NNW,328,0.0,0.0,98,0.00,,,0.00,Wunderground v.1.15,2013-09-25 10:30:00,
2013-09-25 06:35:00,50.2,49.9,29.90,NNW,328,0.0,0.0,99,0.00,,,0.00,Wunderground v.1.15,2013-09-25 10:35:00,
2013-09-25 06:40:00,50.1,49.8,29.89,NNW,328,0.0,0.0,99,0.00,,,0.00,Wunderground v.1.15,2013-09-25 10:40:00,
2013-09-25 06:50:00,50.0,49.5,29.89,NNW,328,0.0,0.0,98,0.00,,,0.00,Wunderground v.1.15,2013-09-25 10:50:00,
2013-09-25 06:55:00,49.9,49.4,29.89,NNW,328,0.0,0.0,98,0.00,,,0.00,Wunderground v.1.15,2013-09-25 10:55:00,
2013-09-25 07:00:00,49.9,49.4,29.89,NNW,328,0.0,0.0,98,0.00,,,0.00,Wunderground v.1.15,2013-09-25 11:00:00,
2013-09-25 07:10:00,49.8,49.5,29.89,NNW,327,0.0,0.0,99,0.00,,,0.00,Wunderground v.1.15,2013-09-25 11:10:00,
2013-09-25 07:15:00,49.8,49.5,29.89,NNW,328,0.0,0.0,99,0.00,,,0.00,Wunderground v.1.15,2013-09-25 11:15:00,
2013-09-25 07:20:00,49.8,49.5,29.89,NNW,328,0.0,0.0,99,0.00,,,0.00,Wunderground v.1.15,2013-09-25 11:20:00,
2013-09-25 07:30:00,49.7,49.4,29.90,NNW,328,0.0,0.0,99,0.00,,,0.00,Wunderground v.1.15,2013-09-25 11:30:00,
2013-09-25 07:35:00,49.7,49.4,29.90,NNW,328,0.0,0.0,99,0.00,,,0.00,Wunderground v.1.15,2013-09-25 11:35:00,
2013-09-25 07:40:00,49.7,49.4,29.90,NNW,328,0.0,0.0,99,0.00,,,0.00,Wunderground v.1.15,2013-09-25 11:40:00,
2013-09-25 07:50:00,49.8,49.5,29.91,NNW,328,0.0,0.0,99,0.00,,,0.00,Wunderground v.1.15,2013-09-25 11:50:00,
2013-09-25 07:55:00,49.9,49.6,29.92,NNW,328,0.0,0.0,99,0.00,,,0.00,Wunderground v.1.15,2013-09-25 11:55:00,
2013-09-25 08:00:00,50.2,49.9,29.92,NNW,328,0.0,0.0,99,0.00,,,0.00,Wunderground v.1.15,2013-09-25 12:00:00,
2013-09-25 08:10:00,51.3,51.0,29.92,NNW,328,0.0,0.0,99,0.00,,,0.00,Wunderground v.1.15,2013-09-25 12:10:00,
2013-09-25 08:15:00,51.7,51.7,29.92,NNW,328,0.0,0.0,100,0.00,,,0.00,Wunderground v.1.15,2013-09-25 12:15:00,
2013-09-25 08:20:00,52.2,52.2,29.92,NNW,328,0.0,0.0,100,0.00,,,0.00,Wunderground v.1.15,2013-09-25 12:20:00,
2013-09-25 08:30:00,53.9,53.9,29.92,NNW,328,0.0,0.0,100,0.00,,,0.00,Wunderground v.1.15,2013-09-25 12:30:00,
2013-09-25 08:35:00,54.5,54.5,29.93,NNW,328,0.0,0.0,100,0.00,,,0.00,Wunderground v.1.15,2013-09-25 12:35:00,
2013-09-25 08:40:00,54.9,54.9,29.93,NNW,328,0.0,0.0,100,0.00,,,0.00,Wunderground v.1.15,2013-09-25 12:40:00,
2013-09-25 08:45:00,55.7,55.7,29.92,NNW,328,0.0,0.0,100,0.00,,,0.00,Wunderground v.1.15,2013-09-25 12:45:00,
2013-09-25 08:55:00,56.9,56.9,29.93,NNW,328,0.0,0.0,100,0.00,,,0.00,Wunderground v.1.15,2013-09-25 12:55:00,
2013-09-25 09:05:00,57.5,57.5,29.93,NNW,328,0.0,0.0,100,0.00,,,0.00,Wunderground v.1.15,2013-09-25 13:05:00,
2013-09-25 09:10:00,57.7,57.7,29.93,NNW,328,0.0,0.0,100,0.00,,,0.00,Wunderground v.1.15,2013-09-25 13:10:00,
2013-09-25 09:15:00,57.6,57.6,29.93,NNW,328,0.0,0.0,100,0.00,,,0.00,Wunderground v.1.15,2013-09-25 13:15:00,
2013-09-25 09:25:00,57.9,57.9,29.92,NNW,328,0.0,0.0,100,0.00,,,0.00,Wunderground v.1.15,2013-09-25 13:25:00,
2013-09-25 09:35:00,58.5,58.5,29.92,NNW,328,0.0,0.0,100,0.00,,,0.00,Wunderground v.1.15,2013-09-25 13:35:00,
2013-09-25 09:40:00,58.7,58.7,29.92,NNW,328,0.0,0.0,100,0.00,,,0.00,Wunderground v.1.15,2013-09-25 13:40:00,
2013-09-25 09:45:00,59.0,59.0,29.92,NNW,328,0.0,0.0,100,0.00,,,0.00,Wunderground v.1.15,2013-09-25 13:45:00,
2013-09-25 09:55:00,59.6,59.6,29.92,NNW,328,0.0,0.0,100,0.00,,,0.00,Wunderground v.1.15,2013-09-25 13:55:00,
2013-09-25 10:00:00,60.0,60.0,29.92,NNW,328,0.0,0.0,100,0.00,,,0.00,Wunderground v.1.15,2013-09-25 14:00:00,
2013-09-25 10:05:00,60.2,60.2,29.92,NNW,328,0.0,0.0,100,0.00,,,0.00,Wunderground v.1.15,2013-09-25 14:05:00,
2013-09-25 10:15:00,60.6,60.6,29.92,NNW,328,0.0,0.0,100,0.00,,,0.00,Wunderground v.1.15,2013-09-25 14:15:00,
2013-09-25 10:20:00,60.9,60.9,29.92,NNW,328,0.0,0.0,100,0.00,,,0.00,Wunderground v.1.15,2013-09-25 14:20:00,
2013-09-25 10:25:00,61.4,61.4,29.92,NNW,348,1.0,1.0,100,0.00,,,0.00,Wunderground v.1.15,2013-09-25 14:25:00,
2013-09-25 10:30:00,61.9,61.9,29.92,NNW,348,0.0,0.0,100,0.00,,,0.00,Wunderground v.1.15,2013-09-25 14:30:00,
2013-09-25 10:40:00,63.0,62.4,29.92,NNW,348,0.0,0.0,98,0.00,,,0.00,Wunderground v.1.15,2013-09-25 14:40:00,
2013-09-25 10:45:00,63.5,62.0,29.92,NNW,339,1.0,1.0,95,0.00,,,0.00,Wunderground v.1.15,2013-09-25 14:45:00,
2013-09-25 10:50:00,63.9,61.5,29.91,NNW,339,0.0,0.0,92,0.00,,,0.00,Wunderground v.1.15,2013-09-25 14:50:00,
2013-09-25 11:00:00,65.1,61.8,29.91,North,360,0.0,0.0,89,0.00,,,0.00,Wunderground v.1.15,2013-09-25 15:00:00,
2013-09-25 11:05:00,65.6,61.3,29.91,North,360,0.0,0.0,86,0.00,,,0.00,Wunderground v.1.15,2013-09-25 15:05:00,
2013-09-25 11:15:00,66.5,62.2,29.90,North,360,0.0,1.0,86,0.00,,,0.00,Wunderground v.1.15,2013-09-25 15:15:00,
2013-09-25 11:20:00,66.6,62.9,29.90,North,360,0.0,0.0,88,0.00,,,0.00,Wunderground v.1.15,2013-09-25 15:20:00,
2013-09-25 11:25:00,66.7,63.4,29.90,North,360,0.0,0.0,89,0.00,,,0.00,Wunderground v.1.15,2013-09-25 15:25:00,
2013-09-25 11:35:00,67.7,62.7,29.90,North,355,0.0,2.0,84,0.00,,,0.00,Wunderground v.1.15,2013-09-25 15:35:00,
2013-09-25 11:45:00,69.1,61.6,29.90,NNW,327,1.0,1.0,77,0.00,,,0.00,Wunderground v.1.15,2013-09-25 15:45:00,
2013-09-25 11:50:00,69.4,61.5,29.90,NNW,327,1.0,1.0,76,0.00,,,0.00,Wunderground v.1.15,2013-09-25 15:50:00,
2013-09-25 11:55:00,69.8,63.3,29.90,NNW,327,0.0,1.0,80,0.00,,,0.00,Wunderground v.1.15,2013-09-25 15:55:00,
2013-09-25 12:05:00,70.0,63.5,29.90,NNE,20,0.0,0.0,80,0.00,,,0.00,Wunderground v.1.15,2013-09-25 16:05:00,
2013-09-25 12:10:00,70.4,62.8,29.90,WNW,288,0.0,0.0,77,0.00,,,0.00,Wunderground v.1.15,2013-09-25 16:10:00,
2013-09-25 12:15:00,71.0,63.4,29.90,NW,313,1.0,1.0,77,0.00,,,0.00,Wunderground v.1.15,2013-09-25 16:15:00,
2013-09-25 12:25:00,70.5,62.2,29.89,NW,313,0.0,2.0,75,0.00,,,0.00,Wunderground v.1.15,2013-09-25 16:25:00,
2013-09-25 12:30:00,70.8,62.5,29.89,NW,313,0.0,1.0,75,0.00,,,0.00,Wunderground v.1.15,2013-09-25 16:30:00,
2013-09-25 12:35:00,71.4,63.8,29.89,East,79,1.0,1.0,77,0.00,,,0.00,Wunderground v.1.15,2013-09-25 16:35:00,
2013-09-25 12:45:00,71.4,62.3,29.89,NNE,26,1.0,3.0,73,0.00,,,0.00,Wunderground v.1.15,2013-09-25 16:45:00,
2013-09-25 12:50:00,71.6,61.3,29.89,NNE,13,0.0,0.0,70,0.00,,,0.00,Wunderground v.1.15,2013-09-25 16:50:00,
2013-09-25 12:55:00,72.1,65.2,29.89,NNE,24,0.0,0.0,79,0.00,,,0.00,Wunderground v.1.15,2013-09-25 16:55:00,
2013-09-25 13:05:00,71.9,63.2,29.89,NNE,24,0.0,1.0,74,0.00,,,0.00,Wunderground v.1.15,2013-09-25 17:05:00,
2013-09-25 13:10:00,72.1,62.6,29.89,North,10,0.0,0.0,72,0.00,,,0.00,Wunderground v.1.15,2013-09-25 17:10:00,
2013-09-25 13:15:00,72.3,62.4,29.89,North,10,1.0,1.0,71,0.00,,,0.00,Wunderground v.1.15,2013-09-25 17:15:00,
2013-09-25 13:25:00,72.5,64.1,29.89,North,10,0.0,0.0,75,0.00,,,0.00,Wunderground v.1.15,2013-09-25 17:25:00,
2013-09-25 13:30:00,72.3,62.4,29.89,North,10,0.0,0.0,71,0.00,,,0.00,Wunderground v.1.15,2013-09-25 17:30:00,
2013-09-25 13:35:00,72.1,63.0,29.89,North,10,0.0,0.0,73,0.00,,,0.00,Wunderground v.1.15,2013-09-25 17:35:00,
2013-09-25 13:45:00,71.8,62.3,29.88,North,10,0.0,0.0,72,0.00,,,0.00,Wunderground v.1.15,2013-09-25 17:45:00,
2013-09-25 13:50:00,71.8,62.7,29.88,North,10,0.0,0.0,73,0.00,,,0.00,Wunderground v.1.15,2013-09-25 17:50:00,
2013-09-25 14:00:00,71.7,61.8,29.88,North,10,0.0,0.0,71,0.00,,,0.00,Wunderground v.1.15,2013-09-25 18:00:00,
2013-09-25 14:05:00,71.9,63.2,29.88,North,10,0.0,0.0,74,0.00,,,0.00,Wunderground v.1.15,2013-09-25 18:05:00,
2013-09-25 14:10:00,71.8,63.8,29.87,North,10,0.0,0.0,76,0.00,,,0.00,Wunderground v.1.15,2013-09-25 18:10:00,
2013-09-25 14:15:00,71.7,64.1,29.87,North,10,0.0,0.0,77,0.00,,,0.00,Wunderground v.1.15,2013-09-25 18:15:00,
2013-09-25 14:25:00,71.0,64.9,29.87,North,10,0.0,0.0,81,0.00,,,0.00,Wunderground v.1.15,2013-09-25 18:25:00,
2013-09-25 14:30:00,70.9,64.4,29.87,North,10,0.0,0.0,80,0.00,,,0.00,Wunderground v.1.15,2013-09-25 18:30:00,
2013-09-25 14:35:00,70.8,64.7,29.87,North,10,0.0,0.0,81,0.00,,,0.00,Wunderground v.1.15,2013-09-25 18:35:00,
2013-09-25 14:45:00,70.6,64.1,29.86,North,10,0.0,0.0,80,0.00,,,0.00,Wunderground v.1.15,2013-09-25 18:45:00,
2013-09-25 14:50:00,70.4,63.6,29.86,North,10,0.0,0.0,79,0.00,,,0.00,Wunderground v.1.15,2013-09-25 18:50:00,
2013-09-25 15:00:00,70.2,64.8,29.86,North,10,0.0,0.0,83,0.00,,,0.00,Wunderground v.1.15,2013-09-25 19:00:00,
2013-09-25 15:05:00,69.9,64.2,29.86,North,10,0.0,0.0,82,0.00,,,0.00,Wunderground v.1.15,2013-09-25 19:05:00,
2013-09-25 15:10:00,69.6,63.9,29.86,North,10,0.0,0.0,82,0.00,,,0.00,Wunderground v.1.15,2013-09-25 19:10:00,
2013-09-25 15:20:00,69.3,64.3,29.85,North,10,0.0,0.0,84,0.00,,,0.00,Wunderground v.1.15,2013-09-25 19:20:00,
2013-09-25 15:25:00,69.4,64.4,29.85,North,10,0.0,0.0,84,0.00,,,0.00,Wunderground v.1.15,2013-09-25 19:25:00,
2013-09-25 15:30:00,69.4,64.4,29.85,North,10,0.0,0.0,84,0.00,,,0.00,Wunderground v.1.15,2013-09-25 19:30:00,
2013-09-25 15:40:00,69.4,64.7,29.85,North,10,0.0,0.0,85,0.00,,,0.00,Wunderground v.1.15,2013-09-25 19:40:00,
2013-09-25 15:45:00,69.3,64.6,29.85,North,10,0.0,0.0,85,0.00,,,0.00,Wunderground v.1.15,2013-09-25 19:45:00,
2013-09-25 15:50:00,69.3,64.6,29.85,North,10,0.0,0.0,85,0.00,,,0.00,Wunderground v.1.15,2013-09-25 19:50:00,
2013-09-25 16:00:00,69.3,65.6,29.84,North,10,0.0,0.0,88,0.00,,,0.00,Wunderground v.1.15,2013-09-25 20:00:00,
2013-09-25 16:05:00,69.3,65.3,29.84,North,10,0.0,0.0,87,0.00,,,0.00,Wunderground v.1.15,2013-09-25 20:05:00,
2013-09-25 16:10:00,69.2,65.5,29.84,North,10,0.0,0.0,88,0.00,,,0.00,Wunderground v.1.15,2013-09-25 20:10:00,
2013-09-25 16:20:00,69.1,65.4,29.84,North,10,0.0,0.0,88,0.00,,,0.00,Wunderground v.1.15,2013-09-25 20:20:00,
2013-09-25 16:25:00,69.1,65.1,29.84,North,10,0.0,0.0,87,0.00,,,0.00,Wunderground v.1.15,2013-09-25 20:25:00,
2013-09-25 16:30:00,69.1,65.1,29.84,North,10,0.0,0.0,87,0.00,,,0.00,Wunderground v.1.15,2013-09-25 20:30:00,
2013-09-25 16:40:00,69.2,65.5,29.84,North,10,0.0,0.0,88,0.00,,,0.00,Wunderground v.1.15,2013-09-25 20:40:00,
2013-09-25 16:45:00,69.2,64.8,29.84,North,10,0.0,0.0,86,0.00,,,0.00,Wunderground v.1.15,2013-09-25 20:45:00,
2013-09-25 16:50:00,69.4,65.0,29.84,North,10,0.0,0.0,86,0.00,,,0.00,Wunderground v.1.15,2013-09-25 20:50:00,
2013-09-25 17:00:00,69.6,65.9,29.84,North,10,0.0,0.0,88,0.00,,,0.00,Wunderground v.1.15,2013-09-25 21:00:00,
2013-09-25 17:05:00,69.8,64.1,29.84,North,10,0.0,0.0,82,0.00,,,0.00,Wunderground v.1.15,2013-09-25 21:05:00,
2013-09-25 17:10:00,69.9,64.2,29.84,North,10,0.0,0.0,82,0.00,,,0.00,Wunderground v.1.15,2013-09-25 21:10:00,
2013-09-25 17:20:00,70.4,64.6,29.84,North,10,0.0,0.0,82,0.00,,,0.00,Wunderground v.1.15,2013-09-25 21:20:00,
2013-09-25 17:25:00,70.5,65.4,29.84,North,10,0.0,0.0,84,0.00,,,0.00,Wunderground v.1.15,2013-09-25 21:25:00,
2013-09-25 17:35:00,70.3,65.6,29.84,North,10,0.0,0.0,85,0.00,,,0.00,Wunderground v.1.15,2013-09-25 21:35:00,
2013-09-25 17:40:00,70.1,65.7,29.84,North,10,0.0,0.0,86,0.00,,,0.00,Wunderground v.1.15,2013-09-25 21:40:00,
2013-09-25 17:45:00,69.8,65.4,29.84,North,10,0.0,0.0,86,0.00,,,0.00,Wunderground v.1.15,2013-09-25 21:45:00,
2013-09-25 17:55:00,69.4,65.4,29.84,NNE,33,0.0,0.0,87,0.00,,,0.00,Wunderground v.1.15,2013-09-25 21:55:00,
2013-09-25 18:00:00,69.3,65.6,29.84,NNE,12,0.0,0.0,88,0.00,,,0.00,Wunderground v.1.15,2013-09-25 22:00:00,
2013-09-25 18:05:00,69.0,65.3,29.84,NNE,12,0.0,0.0,88,0.00,,,0.00,Wunderground v.1.15,2013-09-25 22:05:00,
2013-09-25 18:15:00,68.8,65.4,29.85,SSW,194,0.0,0.0,89,0.00,,,0.00,Wunderground v.1.15,2013-09-25 22:15:00,
2013-09-25 18:20:00,68.5,65.1,29.85,SSW,194,0.0,0.0,89,0.00,,,0.00,Wunderground v.1.15,2013-09-25 22:20:00,
2013-09-25 18:25:00,68.3,64.9,29.84,SSW,194,0.0,0.0,89,0.00,,,0.00,Wunderground v.1.15,2013-09-25 22:25:00,
2013-09-25 18:35:00,68.0,65.0,29.85,SSW,194,0.0,0.0,90,0.00,,,0.00,Wunderground v.1.15,2013-09-25 22:35:00,
2013-09-25 18:40:00,67.9,64.9,29.85,SSW,194,0.0,0.0,90,0.00,,,0.00,Wunderground v.1.15,2013-09-25 22:40:00,
2013-09-25 18:45:00,67.8,65.1,29.85,SSW,194,0.0,0.0,91,0.00,,,0.00,Wunderground v.1.15,2013-09-25 22:45:00,
2013-09-25 18:55:00,67.5,64.8,29.85,SSW,194,0.0,0.0,91,0.00,,,0.00,Wunderground v.1.15,2013-09-25 22:55:00,
2013-09-25 19:00:00,67.3,64.6,29.85,SSW,194,0.0,0.0,91,0.00,,,0.00,Wunderground v.1.15,2013-09-25 23:00:00,
2013-09-25 19:05:00,67.2,64.8,29.85,SSW,194,0.0,0.0,92,0.00,,,0.00,Wunderground v.1.15,2013-09-25 23:05:00,
2013-09-25 19:15:00,66.8,64.7,29.85,SSW,194,0.0,0.0,93,0.00,,,0.00,Wunderground v.1.15,2013-09-25 23:15:00,
2013-09-25 19:20:00,66.7,64.9,29.85,SSW,194,0.0,0.0,94,0.00,,,0.00,Wunderground v.1.15,2013-09-25 23:20:00,
2013-09-25 19:30:00,66.3,64.5,29.85,SSW,194,0.0,0.0,94,0.00,,,0.00,Wunderground v.1.15,2013-09-25 23:30:00,
2013-09-25 19:35:00,66.2,64.4,29.85,SSW,194,0.0,0.0,94,0.00,,,0.00,Wunderground v.1.15,2013-09-25 23:35:00,
2013-09-25 19:40:00,66.0,64.2,29.85,SSW,194,0.0,0.0,94,0.00,,,0.00,Wunderground v.1.15,2013-09-25 23:40:00,
2013-09-25 19:45:00,65.9,64.1,29.85,SSW,194,0.0,0.0,94,0.00,,,0.00,Wunderground v.1.15,2013-09-25 23:45:00,
2013-09-25 19:55:00,65.6,64.1,29.85,SSW,194,0.0,0.0,95,0.00,,,0.00,Wunderground v.1.15,2013-09-25 23:55:00,
2013-09-25 20:00:00,65.5,63.7,29.85,SSW,194,0.0,0.0,94,0.00,,,0.00,Wunderground v.1.15,2013-09-26 00:00:00,
2013-09-25 20:10:00,65.2,63.7,29.85,SSW,194,0.0,0.0,95,0.00,,,0.00,Wunderground v.1.15,2013-09-26 00:10:00,
2013-09-25 20:15:00,65.0,63.5,29.85,SSW,194,0.0,0.0,95,0.00,,,0.00,Wunderground v.1.15,2013-09-26 00:15:00,
2013-09-25 20:20:00,64.9,63.4,29.85,SSW,194,0.0,0.0,95,0.00,,,0.00,Wunderground v.1.15,2013-09-26 00:20:00,
2013-09-25 20:30:00,64.6,63.1,29.85,SSW,194,0.0,0.0,95,0.00,,,0.00,Wunderground v.1.15,2013-09-26 00:30:00,
2013-09-25 20:35:00,64.5,63.3,29.85,SSW,194,0.0,0.0,96,0.00,,,0.00,Wunderground v.1.15,2013-09-26 00:35:00,
2013-09-25 20:45:00,64.3,63.1,29.86,SSW,194,0.0,0.0,96,0.00,,,0.00,Wunderground v.1.15,2013-09-26 00:45:00,
2013-09-25 20:50:00,64.2,63.0,29.85,SSW,194,0.0,0.0,96,0.00,,,0.00,Wunderground v.1.15,2013-09-26 00:50:00,
2013-09-25 20:55:00,64.3,63.1,29.85,SSW,194,0.0,0.0,96,0.00,,,0.00,Wunderground v.1.15,2013-09-26 00:55:00,
2013-09-25 21:05:00,64.3,63.4,29.85,SSW,194,0.0,0.0,97,0.00,,,0.00,Wunderground v.1.15,2013-09-26 01:05:00,
2013-09-25 21:10:00,64.3,63.4,29.86,SSW,194,0.0,0.0,97,0.00,,,0.00,Wunderground v.1.15,2013-09-26 01:10:00,
2013-09-25 21:15:00,64.2,63.0,29.86,SSW,194,0.0,0.0,96,0.00,,,0.00,Wunderground v.1.15,2013-09-26 01:15:00,
2013-09-25 21:25:00,64.0,63.1,29.85,SSW,194,0.0,0.0,97,0.00,,,0.00,Wunderground v.1.15,2013-09-26 01:25:00,
2013-09-25 21:30:00,64.0,63.1,29.86,SSW,194,0.0,0.0,97,0.00,,,0.00,Wunderground v.1.15,2013-09-26 01:30:00,
2013-09-25 21:35:00,63.9,63.0,29.86,SSW,194,0.0,0.0,97,0.00,,,0.00,Wunderground v.1.15,2013-09-26 01:35:00,
2013-09-25 21:45:00,63.8,62.9,29.85,SSW,194,0.0,0.0,97,0.00,,,0.00,Wunderground v.1.15,2013-09-26 01:45:00,
2013-09-25 21:50:00,63.8,62.9,29.85,SSW,194,0.0,0.0,97,0.00,,,0.00,Wunderground v.1.15,2013-09-26 01:50:00,
2013-09-25 21:55:00,63.8,62.9,29.85,SSW,194,0.0,0.0,97,0.00,,,0.00,Wunderground v.1.15,2013-09-26 01:55:00,
2013-09-25 22:05:00,64.1,63.5,29.84,SSW,194,0.0,0.0,98,0.00,,,0.00,Wunderground v.1.15,2013-09-26 02:05:00,
2013-09-25 22:15:00,64.2,63.6,29.85,SSW,194,0.0,0.0,98,0.00,,,0.00,Wunderground v.1.15,2013-09-26 02:15:00,
2013-09-25 22:20:00,64.3,63.4,29.85,SSW,194,0.0,0.0,97,0.00,,,0.00,Wunderground v.1.15,2013-09-26 02:20:00,
2013-09-25 22:30:00,64.2,63.3,29.85,SSW,194,0.0,0.0,97,0.00,,,0.00,Wunderground v.1.15,2013-09-26 02:30:00,
2013-09-25 22:35:00,64.1,63.2,29.85,SSW,194,0.0,0.0,97,0.00,,,0.00,Wunderground v.1.15,2013-09-26 02:35:00,
2013-09-25 22:45:00,64.0,63.1,29.85,SSW,194,0.0,0.0,97,0.00,,,0.00,Wunderground v.1.15,2013-09-26 02:45:00,
2013-09-25 22:50:00,63.9,63.0,29.85,SSW,194,0.0,0.0,97,0.00,,,0.00,Wunderground v.1.15,2013-09-26 02:50:00,
2013-09-25 22:55:00,63.8,62.9,29.85,SSW,194,0.0,0.0,97,0.00,,,0.00,Wunderground v.1.15,2013-09-26 02:55:00,
2013-09-25 23:05:00,63.7,62.8,29.86,SSW,194,0.0,0.0,97,0.00,,,0.00,Wunderground v.1.15,2013-09-26 03:05:00,
2013-09-25 23:10:00,63.6,62.7,29.86,SSW,194,0.0,0.0,97,0.00,,,0.00,Wunderground v.1.15,2013-09-26 03:10:00,
2013-09-25 23:20:00,63.5,62.9,29.86,SSW,194,0.0,0.0,98,0.00,,,0.00,Wunderground v.1.15,2013-09-26 03:20:00,
2013-09-25 23:25:00,63.4,62.5,29.87,SSW,194,0.0,0.0,97,0.00,,,0.00,Wunderground v.1.15,2013-09-26 03:25:00,
2013-09-25 23:30:00,63.4,62.5,29.87,SSW,194,0.0,0.0,97,0.00,,,0.00,Wunderground v.1.15,2013-09-26 03:30:00,
2013-09-25 23:40:00,63.1,61.9,29.86,SSW,194,0.0,0.0,96,0.00,,,0.00,Wunderground v.1.15,2013-09-26 03:40:00,
2013-09-25 23:45:00,63.0,61.8,29.86,SSW,194,0.0,0.0,96,0.00,,,0.00,Wunderground v.1.15,2013-09-26 03:45:00,
2013-09-25 23:50:00,63.0,61.8,29.86,SSW,194,0.0,0.0,96,0.00,,,0.00,Wunderground v.1.15,2013-09-26 03:50:00,